createdAt,value
2018-05-24T00:02:26.160Z,11.70
2018-05-24T00:04:53.706Z,11.73
2018-05-24T00:07:21.089Z,12.07
2018-05-24T00:09:48.386Z,10.43
2018-05-24T00:12:15.740Z,12.00
2018-05-24T00:14:43.030Z,11.67
2018-05-24T00:17:10.597Z,9.90
2018-05-24T00:19:37.991Z,10.60
2018-05-24T00:22:05.269Z,10.73
2018-05-24T00:24:32.536Z,12.47
2018-05-24T00:26:59.805Z,12.00
2018-05-24T00:29:27.087Z,11.73
2018-05-24T00:31:54.359Z,11.67
2018-05-24T00:34:21.633Z,10.77
2018-05-24T00:36:48.902Z,12.17
2018-05-24T00:39:16.243Z,10.80
2018-05-24T00:41:43.512Z,11.73
2018-05-24T00:44:10.811Z,11.87
2018-05-24T00:46:38.075Z,11.70
2018-05-24T00:49:05.465Z,11.07
2018-05-24T00:51:32.747Z,11.67
2018-05-24T00:54:00.206Z,11.47
2018-05-24T00:56:27.604Z,10.20
2018-05-24T00:58:54.871Z,11.57
2018-05-24T01:01:22.155Z,12.63
2018-05-24T01:03:49.421Z,11.13
2018-05-24T01:06:16.707Z,11.20
2018-05-24T01:08:43.976Z,11.37
2018-05-24T01:11:11.256Z,12.80
2018-05-24T01:13:38.521Z,11.43
2018-05-24T01:16:05.803Z,12.60
2018-05-24T01:18:33.066Z,12.10
2018-05-24T01:21:00.342Z,10.67
2018-05-24T01:23:27.613Z,11.47
2018-05-24T01:25:54.893Z,13.73
2018-05-24T01:28:24.671Z,13.03
2018-05-24T01:30:51.952Z,13.20
2018-05-24T01:33:19.215Z,13.37
2018-05-24T01:35:46.498Z,11.97
2018-05-24T01:38:13.770Z,12.77
2018-05-24T01:40:41.056Z,11.90
2018-05-24T01:43:08.316Z,11.53
2018-05-24T01:45:35.599Z,12.13
2018-05-24T01:48:02.860Z,14.30
2018-05-24T01:50:30.139Z,11.90
2018-05-24T01:52:57.415Z,12.70
2018-05-24T01:55:25.711Z,11.27
2018-05-24T01:57:52.975Z,11.40
2018-05-24T02:00:20.341Z,14.10
2018-05-24T02:02:47.526Z,13.07
2018-05-24T02:05:14.806Z,13.07
2018-05-24T02:07:42.066Z,13.43
2018-05-24T02:10:09.347Z,12.47
2018-05-24T02:12:36.613Z,12.47
2018-05-24T02:15:03.899Z,11.40
2018-05-24T02:17:31.164Z,12.77
2018-05-24T02:19:58.552Z,13.80
2018-05-24T02:22:25.818Z,12.47
2018-05-24T02:24:53.099Z,11.53
2018-05-24T02:27:20.359Z,11.70
2018-05-24T02:29:47.668Z,13.30
2018-05-24T02:32:15.024Z,12.80
2018-05-24T02:34:42.315Z,13.30
2018-05-24T02:37:09.573Z,13.50
2018-05-24T02:39:36.840Z,13.13
2018-05-24T02:42:04.133Z,12.23
2018-05-24T02:44:31.503Z,12.50
2018-05-24T02:46:58.846Z,13.00
2018-05-24T02:49:26.164Z,11.10
2018-05-24T02:51:53.398Z,12.57
2018-05-24T02:54:20.667Z,11.80
2018-05-24T02:56:47.958Z,13.17
2018-05-24T02:59:15.226Z,12.57
2018-05-24T03:01:42.617Z,12.97
2018-05-24T03:04:09.771Z,13.07
2018-05-24T03:06:37.080Z,12.93
2018-05-24T03:09:05.271Z,12.77
2018-05-24T03:11:32.608Z,12.60
2018-05-24T03:13:59.867Z,12.23
2018-05-24T03:16:27.155Z,12.27
2018-05-24T03:18:54.420Z,11.10
2018-05-24T03:21:21.705Z,11.57
2018-05-24T03:23:48.963Z,12.53
2018-05-24T03:26:16.330Z,11.23
2018-05-24T03:28:43.598Z,11.80
2018-05-24T03:31:10.874Z,13.57
2018-05-24T03:33:38.158Z,12.60
2018-05-24T03:36:05.432Z,12.10
2018-05-24T03:38:32.690Z,12.30
2018-05-24T03:40:59.977Z,13.90
2018-05-24T03:43:27.241Z,13.30
2018-05-24T03:45:54.518Z,12.63
2018-05-24T03:48:21.784Z,11.10
2018-05-24T03:50:49.076Z,13.30
2018-05-24T03:53:16.334Z,11.50
2018-05-24T03:55:43.621Z,13.17
2018-05-24T03:58:10.933Z,12.07
2018-05-24T04:00:44.342Z,13.80
2018-05-24T04:03:17.559Z,14.33
2018-05-24T04:05:44.979Z,12.30
2018-05-24T04:08:12.143Z,12.07
2018-05-24T04:10:39.517Z,13.23
2018-05-24T04:13:06.779Z,12.90
2018-05-24T04:15:34.067Z,11.00
2018-05-24T04:18:01.333Z,12.43
2018-05-24T04:20:28.702Z,11.97
2018-05-24T04:22:55.972Z,11.60
2018-05-24T04:25:23.246Z,11.07
2018-05-24T04:27:50.568Z,10.57
2018-05-24T04:30:17.839Z,13.80
2018-05-24T04:32:45.119Z,11.43
2018-05-24T04:35:12.396Z,10.97
2018-05-24T04:37:39.674Z,11.57
2018-05-24T04:40:06.945Z,10.67
2018-05-24T04:42:34.227Z,12.80
2018-05-24T04:45:01.557Z,11.57
2018-05-24T04:47:28.839Z,10.50
2018-05-24T04:49:56.157Z,11.17
2018-05-24T04:52:23.508Z,9.40
2018-05-24T04:54:50.771Z,9.27
2018-05-24T04:57:18.935Z,10.40
2018-05-24T04:59:46.295Z,10.10
2018-05-24T05:02:13.567Z,9.27
2018-05-24T05:04:40.823Z,9.50
2018-05-24T05:07:08.295Z,9.57
2018-05-24T05:09:35.708Z,11.17
2018-05-24T05:12:03.046Z,10.63
2018-05-24T05:14:30.818Z,10.40
2018-05-24T05:16:58.533Z,10.00
2018-05-24T05:19:25.991Z,10.67
2018-05-24T05:21:53.226Z,9.70
2018-05-24T05:24:20.491Z,9.70
2018-05-24T05:26:47.783Z,10.03
2018-05-24T05:29:15.044Z,9.90
2018-05-24T05:31:42.331Z,10.60
2018-05-24T05:34:09.627Z,10.63
2018-05-24T05:36:36.916Z,9.27
2018-05-24T05:39:05.115Z,9.80
2018-05-24T05:41:32.371Z,9.07
2018-05-24T05:43:59.651Z,9.90
2018-05-24T05:46:26.973Z,10.20
2018-05-24T05:48:54.268Z,9.87
2018-05-24T05:51:21.583Z,9.20
2018-05-24T05:53:48.868Z,9.10
2018-05-24T05:56:16.132Z,9.43
2018-05-24T05:58:43.435Z,9.77
2018-05-24T06:01:10.683Z,9.60
2018-05-24T06:03:37.951Z,9.10
2018-05-24T06:06:05.243Z,9.10
2018-05-24T06:08:32.520Z,9.53
2018-05-24T06:10:59.809Z,10.27
2018-05-24T06:13:27.175Z,9.43
2018-05-24T06:15:54.458Z,10.27
2018-05-24T06:18:21.746Z,8.80
2018-05-24T06:20:49.042Z,8.00
2018-05-24T06:23:16.324Z,9.30
2018-05-24T06:25:43.576Z,9.97
2018-05-24T06:28:10.900Z,9.60
2018-05-24T06:30:38.155Z,9.20
2018-05-24T06:33:05.503Z,8.90
2018-05-24T06:35:32.797Z,10.57
2018-05-24T06:38:00.073Z,9.47
2018-05-24T06:40:27.396Z,8.37
2018-05-24T06:42:54.616Z,8.97
2018-05-24T06:45:21.974Z,8.67
2018-05-24T06:47:49.235Z,9.83
2018-05-24T06:50:16.523Z,9.00
2018-05-24T06:52:43.788Z,9.53
2018-05-24T06:55:11.053Z,10.13
2018-05-24T06:57:38.354Z,8.93
2018-05-24T07:00:07.377Z,9.20
2018-05-24T07:02:34.655Z,8.93
2018-05-24T07:05:01.920Z,9.20
2018-05-24T07:07:29.175Z,8.50
2018-05-24T07:09:56.519Z,9.40
2018-05-24T07:12:23.850Z,9.70
2018-05-24T07:14:51.168Z,9.47
2018-05-24T07:19:52.209Z,9.60
2018-05-24T07:22:19.492Z,9.80
2018-05-24T07:24:46.775Z,8.80
2018-05-24T07:27:14.095Z,9.50
2018-05-24T07:29:41.384Z,9.63
2018-05-24T07:32:08.643Z,8.93
2018-05-24T07:34:35.952Z,9.90
2018-05-24T07:37:03.213Z,10.27
2018-05-24T07:39:30.478Z,10.13
2018-05-24T07:41:57.771Z,9.27
2018-05-24T07:44:25.064Z,9.23
2018-05-24T07:46:52.348Z,9.23
2018-05-24T07:49:19.623Z,11.03
2018-05-24T07:51:46.885Z,10.07
2018-05-24T07:54:14.187Z,10.67
2018-05-24T07:56:41.539Z,11.33
2018-05-24T07:59:08.899Z,10.53
2018-05-24T08:01:36.192Z,10.53
2018-05-24T08:04:03.511Z,12.70
2018-05-24T08:06:30.795Z,11.80
2018-05-24T08:08:58.079Z,11.43
2018-05-24T08:11:25.355Z,12.57
2018-05-24T08:13:52.627Z,11.50
2018-05-24T08:16:20.561Z,11.83
2018-05-24T08:18:47.819Z,13.03
2018-05-24T08:21:15.117Z,12.97
2018-05-24T08:23:42.394Z,12.10
2018-05-24T08:26:09.642Z,12.10
2018-05-24T08:28:36.935Z,11.90
2018-05-24T08:31:04.195Z,11.17
2018-05-24T08:33:31.475Z,11.10
2018-05-24T08:35:58.733Z,11.03
2018-05-24T08:38:26.004Z,11.00
2018-05-24T08:40:53.268Z,11.20
2018-05-24T08:43:20.592Z,10.40
2018-05-24T08:45:47.864Z,10.50
2018-05-24T08:48:15.187Z,10.00
2018-05-24T08:50:42.470Z,10.43
2018-05-24T08:53:09.736Z,9.67
2018-05-24T08:55:37.324Z,10.50
2018-05-24T08:58:04.619Z,9.93
2018-05-24T09:00:31.884Z,9.83
2018-05-24T09:02:59.147Z,8.73
2018-05-24T09:05:26.403Z,8.97
2018-05-24T09:07:53.679Z,9.50
2018-05-24T09:10:20.940Z,9.73
2018-05-24T09:12:48.211Z,9.73
2018-05-24T09:15:15.476Z,10.13
2018-05-24T09:17:42.755Z,11.87
2018-05-24T09:20:10.038Z,12.13
2018-05-24T09:22:37.318Z,11.87
2018-05-24T09:25:04.593Z,12.73
2018-05-24T09:27:31.877Z,12.50
2018-05-24T09:29:59.222Z,10.50
2018-05-24T09:32:26.514Z,10.73
2018-05-24T09:34:53.775Z,10.53
2018-05-24T09:37:21.054Z,10.30
2018-05-24T09:39:48.323Z,11.33
2018-05-24T09:42:15.628Z,11.50
2018-05-24T09:44:42.946Z,11.50
2018-05-24T09:47:10.227Z,12.43
2018-05-24T09:49:37.501Z,13.00
2018-05-24T09:52:04.786Z,11.83
2018-05-24T09:54:32.050Z,11.80
2018-05-24T09:56:59.333Z,12.10
2018-05-24T09:59:26.591Z,13.07
2018-05-24T10:01:53.883Z,11.97
2018-05-24T10:04:21.143Z,10.80
2018-05-24T10:06:48.428Z,10.97
2018-05-24T10:09:15.702Z,10.93
2018-05-24T10:11:43.038Z,10.03
2018-05-24T10:14:10.323Z,11.30
2018-05-24T10:16:37.692Z,13.03
2018-05-24T10:19:04.867Z,12.47
2018-05-24T10:21:32.132Z,12.10
2018-05-24T10:23:59.412Z,12.30
2018-05-24T10:26:26.671Z,11.37
2018-05-24T10:28:54.024Z,13.27
2018-05-24T10:31:21.291Z,15.27
2018-05-24T10:33:48.579Z,14.17
2018-05-24T10:36:15.835Z,15.30
2018-05-24T10:38:43.123Z,15.70
2018-05-24T10:41:10.399Z,16.13
2018-05-24T10:43:37.675Z,16.10
2018-05-24T10:46:04.943Z,16.23
2018-05-24T10:48:32.234Z,17.63
2018-05-24T10:50:59.533Z,17.10
2018-05-24T10:53:26.776Z,15.67
2018-05-24T10:55:54.042Z,17.00
2018-05-24T10:58:21.326Z,19.57
2018-05-24T11:00:48.595Z,19.00
2018-05-24T11:03:15.913Z,18.40
2018-05-24T11:05:43.147Z,19.07
2018-05-24T11:08:10.490Z,20.93
2018-05-24T11:10:37.746Z,20.50
2018-05-24T11:13:05.035Z,20.57
2018-05-24T11:15:32.302Z,20.47
2018-05-24T11:17:59.588Z,20.00
2018-05-24T11:20:26.852Z,18.63
2018-05-24T11:22:54.134Z,19.53
2018-05-24T11:25:21.437Z,19.00
2018-05-24T11:27:48.683Z,20.20
2018-05-24T11:30:15.948Z,16.97
2018-05-24T11:32:43.227Z,17.67
2018-05-24T11:35:10.487Z,16.33
2018-05-24T11:37:37.782Z,13.33
2018-05-24T11:40:05.085Z,12.80
2018-05-24T11:42:32.443Z,11.20
2018-05-24T11:44:59.706Z,12.27
2018-05-24T11:47:26.995Z,11.73
2018-05-24T11:49:54.262Z,11.50
2018-05-24T11:52:21.542Z,11.13
2018-05-24T11:54:48.821Z,11.60
2018-05-24T11:57:16.160Z,10.37
2018-05-24T11:59:43.445Z,11.57
2018-05-24T12:02:10.709Z,10.80
2018-05-24T12:04:38.018Z,10.10
2018-05-24T12:07:05.304Z,9.57
2018-05-24T12:09:32.555Z,9.10
2018-05-24T12:12:00.538Z,8.80
2018-05-24T12:14:27.949Z,8.53
2018-05-24T12:16:55.215Z,8.30
2018-05-24T12:19:22.493Z,7.80
2018-05-24T12:21:49.747Z,6.20
2018-05-24T12:24:17.071Z,5.60
2018-05-24T12:26:44.428Z,5.10
2018-05-24T12:29:11.751Z,5.50
2018-05-24T12:31:39.040Z,4.90
2018-05-24T12:34:06.391Z,5.90
2018-05-24T12:36:33.638Z,5.77
2018-05-24T12:39:00.999Z,5.00
2018-05-24T12:41:28.282Z,5.20
2018-05-24T12:43:55.903Z,5.40
2018-05-24T12:46:23.143Z,5.80
2018-05-24T12:48:50.434Z,5.53
2018-05-24T12:51:17.780Z,5.20
2018-05-24T12:53:45.052Z,5.07
2018-05-24T12:56:12.312Z,5.27
2018-05-24T12:58:40.427Z,4.73
2018-05-24T13:01:07.680Z,5.40
2018-05-24T13:03:34.957Z,5.37
2018-05-24T13:06:02.207Z,5.10
2018-05-24T13:08:29.487Z,5.47
2018-05-24T13:10:56.736Z,4.90
2018-05-24T13:13:24.004Z,5.60
2018-05-24T13:15:51.259Z,6.00
2018-05-24T13:18:18.604Z,5.20
2018-05-24T13:20:45.956Z,5.50
2018-05-24T13:23:13.240Z,5.30
2018-05-24T13:25:40.484Z,5.30
2018-05-24T13:28:08.720Z,5.60
2018-05-24T13:30:36.626Z,5.37
2018-05-24T13:33:04.713Z,5.80
2018-05-24T13:35:32.816Z,5.67
2018-05-24T13:38:01.252Z,5.47
2018-05-24T13:40:28.525Z,4.80
2018-05-24T13:42:55.799Z,4.93
2018-05-24T13:45:23.188Z,5.13
2018-05-24T13:47:50.453Z,4.97
2018-05-24T13:50:18.193Z,5.20
2018-05-24T13:52:45.671Z,4.37
2018-05-24T13:55:12.954Z,4.83
2018-05-24T13:57:42.847Z,4.90
2018-05-24T14:00:10.440Z,4.50
2018-05-24T14:02:37.897Z,4.67
2018-05-24T14:05:05.143Z,4.20
2018-05-24T14:07:32.400Z,4.47
2018-05-24T14:09:59.672Z,4.93
2018-05-24T14:12:26.978Z,4.63
2018-05-24T14:14:54.246Z,3.67
2018-05-24T14:17:21.526Z,3.93
2018-05-24T14:19:48.766Z,3.47
2018-05-24T14:22:16.332Z,4.00
2018-05-24T14:24:43.574Z,3.73
2018-05-24T14:27:11.109Z,3.60
2018-05-24T14:29:38.562Z,4.80
2018-05-24T14:32:05.828Z,4.20
2018-05-24T14:34:33.180Z,3.63
2018-05-24T14:37:00.529Z,4.27
2018-05-24T14:39:27.806Z,3.37
2018-05-24T14:41:55.059Z,4.47
2018-05-24T14:44:22.331Z,4.40
2018-05-24T14:46:49.591Z,4.63
2018-05-24T14:49:16.863Z,4.30
2018-05-24T14:51:44.362Z,4.53
2018-05-24T14:54:11.631Z,4.73
2018-05-24T14:56:38.963Z,4.40
2018-05-24T14:59:06.234Z,4.03
2018-05-24T15:01:33.499Z,4.20
2018-05-24T15:04:00.776Z,3.63
2018-05-24T15:06:28.023Z,3.83
2018-05-24T15:08:55.302Z,3.60
2018-05-24T15:11:22.555Z,4.33
2018-05-24T15:13:50.907Z,3.93
2018-05-24T15:16:18.185Z,4.50
2018-05-24T15:18:45.447Z,4.43
2018-05-24T15:21:12.712Z,4.20
2018-05-24T15:23:39.982Z,4.20
2018-05-24T15:26:07.234Z,4.40
2018-05-24T15:28:34.506Z,4.60
2018-05-24T15:31:01.850Z,4.13
2018-05-24T15:33:29.111Z,4.40
2018-05-24T15:35:56.383Z,4.63
2018-05-24T15:38:24.013Z,4.53
2018-05-24T15:40:51.370Z,4.77
2018-05-24T15:43:18.634Z,4.63
2018-05-24T15:45:45.892Z,4.50
2018-05-24T15:48:13.140Z,4.80
2018-05-24T15:50:40.415Z,4.80
2018-05-24T15:53:07.658Z,4.47
2018-05-24T15:55:34.936Z,4.57
2018-05-24T15:58:02.192Z,5.00
2018-05-24T16:00:29.511Z,4.80
2018-05-24T16:02:56.860Z,4.80
2018-05-24T16:05:24.135Z,4.70
2018-05-24T16:07:51.383Z,4.80
2018-05-24T16:10:18.740Z,4.90
2018-05-24T16:12:45.996Z,4.67
2018-05-24T16:15:13.273Z,4.30
2018-05-24T16:17:40.526Z,4.10
2018-05-24T16:20:07.844Z,4.40
2018-05-24T16:22:35.098Z,4.13
2018-05-24T16:25:02.364Z,4.63
2018-05-24T16:27:29.835Z,4.23
2018-05-24T16:29:57.113Z,4.33
2018-05-24T16:32:24.363Z,4.77
2018-05-24T16:34:51.637Z,4.03
2018-05-24T16:37:18.891Z,4.27
2018-05-24T16:39:46.186Z,4.53
2018-05-24T16:42:13.436Z,3.80
2018-05-24T16:44:40.710Z,4.30
2018-05-24T16:47:07.955Z,4.27
2018-05-24T16:49:35.234Z,4.67
2018-05-24T16:52:02.492Z,4.23
2018-05-24T16:54:29.835Z,4.13
2018-05-24T16:56:57.011Z,3.93
2018-05-24T16:59:24.279Z,4.20
2018-05-24T17:01:51.543Z,3.60
2018-05-24T17:04:19.157Z,3.93
2018-05-24T17:06:46.422Z,4.00
2018-05-24T17:09:13.699Z,4.10
2018-05-24T17:11:40.951Z,3.80
2018-05-24T17:14:08.225Z,3.57
2018-05-24T17:16:35.491Z,4.03
2018-05-24T17:19:02.752Z,3.70
2018-05-24T17:21:30.031Z,3.70
2018-05-24T17:23:57.347Z,3.60
2018-05-24T17:26:24.622Z,3.73
2018-05-24T17:28:51.878Z,3.77
2018-05-24T17:31:19.144Z,3.63
2018-05-24T17:33:46.407Z,3.60
2018-05-24T17:36:13.676Z,4.03
2018-05-24T17:38:41.045Z,4.03
2018-05-24T17:41:09.311Z,3.30
2018-05-24T17:43:36.579Z,3.47
2018-05-24T17:46:03.839Z,3.70
2018-05-24T17:48:31.111Z,3.90
2018-05-24T17:50:58.382Z,4.07
2018-05-24T17:53:29.588Z,3.73
2018-05-24T17:55:59.522Z,3.90
2018-05-24T17:58:27.173Z,3.83
2018-05-24T18:00:54.453Z,3.30
2018-05-24T18:03:21.754Z,3.20
2018-05-24T18:05:48.984Z,3.87
2018-05-24T18:08:16.248Z,3.33
2018-05-24T18:10:43.502Z,4.00
2018-05-24T18:13:10.756Z,3.87
2018-05-24T18:15:38.036Z,4.03
2018-05-24T18:18:05.290Z,4.57
2018-05-24T18:20:32.588Z,4.20
2018-05-24T18:22:59.965Z,3.87
2018-05-24T18:25:27.214Z,4.17
2018-05-24T18:27:54.548Z,4.00
2018-05-24T18:30:21.824Z,4.30
2018-05-24T18:32:49.070Z,4.53
2018-05-24T18:35:19.500Z,4.50
2018-05-24T18:37:50.583Z,4.70
2018-05-24T18:40:18.655Z,5.10
2018-05-24T18:42:46.497Z,6.07
2018-05-24T18:45:14.298Z,5.63
2018-05-24T18:47:42.089Z,4.60
2018-05-24T18:50:09.588Z,5.20
2018-05-24T18:52:44.671Z,4.30
2018-05-24T18:55:11.969Z,4.87
2018-05-24T18:57:39.399Z,5.03
2018-05-24T19:00:06.937Z,4.83
2018-05-24T19:02:34.216Z,3.90
2018-05-24T19:05:01.735Z,4.97
2018-05-24T19:07:29.174Z,4.33
2018-05-24T19:09:56.444Z,4.63
2018-05-24T19:12:23.701Z,4.60
2018-05-24T19:14:50.973Z,5.10
2018-05-24T19:17:18.228Z,3.90
2018-05-24T19:19:45.723Z,4.50
2018-05-24T19:22:13.064Z,4.97
2018-05-24T19:24:40.454Z,5.50
2018-05-24T19:27:07.696Z,4.70
2018-05-24T19:29:34.992Z,4.73
2018-05-24T19:32:02.228Z,5.20
2018-05-24T19:34:29.532Z,5.67
2018-05-24T19:36:56.791Z,5.47
2018-05-24T19:39:24.143Z,5.60
2018-05-24T19:41:51.419Z,5.20
2018-05-24T19:44:18.676Z,4.83
2018-05-24T19:46:45.944Z,5.40
2018-05-24T19:49:13.208Z,5.90
2018-05-24T19:51:40.475Z,6.90
2018-05-24T19:54:07.760Z,6.30
2018-05-24T19:56:35.036Z,5.77
2018-05-24T19:59:02.372Z,7.00
2018-05-24T20:01:29.638Z,6.10
2018-05-24T20:03:56.887Z,5.57
2018-05-24T20:06:24.161Z,5.30
2018-05-24T20:08:51.412Z,5.30
2018-05-24T20:11:18.685Z,5.50
2018-05-24T20:13:45.947Z,5.50
2018-05-24T20:16:13.220Z,6.17
2018-05-24T20:18:40.475Z,6.37
2018-05-24T20:21:07.751Z,7.00
2018-05-24T20:23:34.999Z,7.33
2018-05-24T20:26:02.278Z,7.80
2018-05-24T20:28:29.533Z,9.40
2018-05-24T20:30:56.808Z,6.90
2018-05-24T20:33:24.063Z,6.27
2018-05-24T20:35:51.335Z,5.97
2018-05-24T20:38:18.588Z,6.70
2018-05-24T20:40:45.860Z,7.13
2018-05-24T20:43:13.134Z,9.20
2018-05-24T20:45:40.495Z,6.30
2018-05-24T20:48:07.751Z,7.37
2018-05-24T20:50:35.027Z,7.73
2018-05-24T20:53:02.279Z,8.20
2018-05-24T20:55:29.655Z,8.33
2018-05-24T20:57:56.915Z,7.23
2018-05-24T21:00:24.184Z,9.43
2018-05-24T21:02:51.447Z,10.00
2018-05-24T21:05:18.713Z,10.50
2018-05-24T21:07:45.987Z,8.00
2018-05-24T21:10:13.256Z,7.90
2018-05-24T21:12:40.585Z,7.33
2018-05-24T21:15:07.840Z,8.70
2018-05-24T21:17:35.107Z,11.00
2018-05-24T21:20:02.447Z,9.97
2018-05-24T21:22:29.719Z,8.83
2018-05-24T21:24:56.971Z,8.90
2018-05-24T21:27:24.247Z,8.97
2018-05-24T21:29:51.568Z,12.17
2018-05-24T21:32:18.984Z,10.87
2018-05-24T21:34:46.248Z,10.20
2018-05-24T21:37:13.535Z,10.93
2018-05-24T21:39:40.800Z,10.17
2018-05-24T21:42:08.091Z,11.80
2018-05-24T21:44:35.356Z,11.47
2018-05-24T21:47:02.631Z,11.33
2018-05-24T21:49:29.899Z,11.63
2018-05-24T21:51:57.183Z,10.07
2018-05-24T21:54:24.442Z,11.10
2018-05-24T21:56:51.721Z,11.17
2018-05-24T21:59:18.985Z,14.27
2018-05-24T22:01:46.272Z,12.70
2018-05-24T22:04:13.702Z,14.77
2018-05-24T22:06:40.943Z,17.13
2018-05-24T22:09:08.240Z,12.83
2018-05-24T22:11:35.524Z,14.10
2018-05-24T22:14:02.824Z,12.20
2018-05-24T22:16:30.114Z,12.90
2018-05-24T22:18:57.381Z,13.63
2018-05-24T22:21:24.678Z,14.00
2018-05-24T22:23:51.989Z,13.70
2018-05-24T22:26:19.315Z,12.70
2018-05-24T22:28:46.620Z,14.40
2018-05-24T22:31:13.879Z,12.17
2018-05-24T22:33:41.180Z,13.43
2018-05-24T22:36:08.436Z,13.40
2018-05-24T22:38:35.727Z,18.27
2018-05-24T22:41:03.022Z,15.93
2018-05-24T22:43:30.299Z,13.93
2018-05-24T22:45:57.593Z,14.97
2018-05-24T22:48:24.859Z,12.30
2018-05-24T22:50:52.148Z,11.50
2018-05-24T22:53:19.416Z,15.33
2018-05-24T22:55:46.718Z,14.27
2018-05-24T22:58:14.005Z,14.90
2018-05-24T23:00:41.299Z,12.10
2018-05-24T23:03:08.593Z,13.90
2018-05-24T23:05:35.879Z,12.97
2018-05-24T23:08:03.152Z,14.37
2018-05-24T23:10:30.447Z,12.90
2018-05-24T23:12:57.710Z,12.97
2018-05-24T23:15:25.002Z,16.60
2018-05-24T23:17:52.352Z,15.10
2018-05-24T23:20:19.707Z,15.67
2018-05-24T23:22:47.070Z,14.83
2018-05-24T23:25:14.364Z,13.13
2018-05-24T23:27:41.668Z,15.90
2018-05-24T23:30:08.929Z,15.37
2018-05-24T23:32:36.186Z,16.93
2018-05-24T23:35:03.535Z,15.77
2018-05-24T23:37:30.891Z,13.60
2018-05-24T23:39:58.176Z,14.53
2018-05-24T23:42:25.437Z,12.27
2018-05-24T23:44:52.732Z,13.97
2018-05-24T23:47:20.000Z,12.47
2018-05-24T23:49:47.287Z,15.60
2018-05-24T23:52:14.622Z,14.27
2018-05-24T23:54:41.902Z,13.73
2018-05-24T23:57:09.211Z,13.03
2018-05-24T23:59:36.473Z,15.03
